Time;durP1;ratioP1;P1;durP2;ratioP2;P2;SDS_P1;SDS_P2;PMS_P1;PMS_P2;Temp;Humidity;BMP_temperature;BMP_pressure;BME280_temperature;BME280_humidity;BME280_pressure;Samples;Min_cycle;Max_cycle;Signal;HPM_P1;HPM_P2
2022/07/31 00:00:14;;;;;;;8.57;5.93;;;;;;;;;;5074429;28;20243;-39
2022/07/31 00:03:00;;;;;;;7.88;6.07;;;;;;;;;;5075159;28;20211;-39
2022/07/31 00:05:28;;;;;;;13.27;6.57;;;;;;;;;;5077874;28;20203;-39
2022/07/31 00:07:55;;;;;;;9.75;5.95;;;;;;;;;;5077982;28;20226;-39
2022/07/31 00:10:22;;;;;;;8.63;6.00;;;;;;;;;;5077949;28;20298;-39
2022/07/31 00:12:50;;;;;;;9.15;5.47;;;;;;;;;;5077558;28;20227;-39
2022/07/31 00:15:17;;;;;;;7.72;6.25;;;;;;;;;;5077739;28;20594;-39
2022/07/31 00:17:44;;;;;;;10.50;6.13;;;;;;;;;;5077577;28;20199;-41
2022/07/31 00:20:14;;;;;;;8.40;6.18;;;;;;;;;;5076836;28;20212;-39
2022/07/31 00:22:42;;;;;;;5.95;5.25;;;;;;;;;;5077641;28;20199;-40
2022/07/31 00:25:11;;;;;;;6.93;6.05;;;;;;;;;;5077369;28;20223;-39
2022/07/31 00:27:38;;;;;;;8.23;5.97;;;;;;;;;;5077590;28;20211;-39
2022/07/31 00:30:06;;;;;;;8.57;6.10;;;;;;;;;;5077264;28;20306;-39
2022/07/31 00:32:34;;;;;;;11.18;5.97;;;;;;;;;;5076480;28;20219;-40
2022/07/31 00:35:01;;;;;;;9.55;5.72;;;;;;;;;;5077455;28;20273;-39
2022/07/31 00:37:28;;;;;;;6.10;4.95;;;;;;;;;;5076383;28;20204;-40
2022/07/31 00:39:55;;;;;;;7.82;5.78;;;;;;;;;;5076474;28;20234;-40
2022/07/31 00:42:24;;;;;;;6.90;5.63;;;;;;;;;;5077340;28;20211;-39
2022/07/31 00:44:51;;;;;;;6.72;4.93;;;;;;;;;;5076474;28;20199;-40
2022/07/31 00:47:18;;;;;;;10.05;5.60;;;;;;;;;;5076646;28;20214;-40
2022/07/31 00:49:51;;;;;;;6.22;4.55;;;;;;;;;;5077217;28;20211;-39
2022/07/31 00:52:19;;;;;;;6.40;4.88;;;;;;;;;;5075897;28;20665;-39
2022/07/31 00:54:46;;;;;;;13.48;4.65;;;;;;;;;;5077501;28;20203;-39
2022/07/31 00:57:14;;;;;;;9.48;4.70;;;;;;;;;;5077178;28;20203;-39
2022/07/31 00:59:42;;;;;;;5.82;4.82;;;;;;;;;;5076973;28;20230;-39
2022/07/31 01:02:09;;;;;;;6.15;4.85;;;;;;;;;;5076746;28;20742;-39
2022/07/31 01:04:37;;;;;;;5.20;4.18;;;;;;;;;;5076243;28;20511;-39
2022/07/31 01:07:10;;;;;;;6.43;4.43;;;;;;;;;;5075816;28;20614;-39
2022/07/31 01:09:37;;;;;;;5.40;4.82;;;;;;;;;;5076610;28;20204;-39
2022/07/31 01:12:47;;;;;;;7.85;4.82;;;;;;;;;;5076598;28;20541;-39
2022/07/31 01:15:20;;;;;;;7.10;4.97;;;;;;;;;;5018814;28;20201;-39
2022/07/31 01:17:48;;;;;;;7.32;5.28;;;;;;;;;;5018405;28;20632;-39
2022/07/31 01:20:16;;;;;;;8.38;5.10;;;;;;;;;;5018551;28;20209;-39
2022/07/31 01:23:10;;;;;;;8.18;5.40;;;;;;;;;;5018286;28;20690;-39
2022/07/31 01:26:12;;;;;;;7.15;5.45;;;;;;;;;;5018650;28;20205;-39
2022/07/31 01:29:08;;;;;;;5.90;5.30;;;;;;;;;;5018301;28;20697;-39
2022/07/31 01:31:58;;;;;;;7.63;5.60;;;;;;;;;;5018752;28;20343;-39
2022/07/31 01:35:10;;;;;;;8.73;5.65;;;;;;;;;;5018064;28;20292;-39
2022/07/31 01:38:14;;;;;;;8.93;6.03;;;;;;;;;;4956486;29;20266;-39
2022/07/31 01:40:46;;;;;;;7.18;6.07;;;;;;;;;;4940514;29;20644;-39
2022/07/31 01:43:18;;;;;;;7.05;5.43;;;;;;;;;;4956385;29;20215;-39
2022/07/31 01:45:46;;;;;;;10.85;5.72;;;;;;;;;;4956554;29;20214;-39
2022/07/31 01:48:14;;;;;;;7.80;5.97;;;;;;;;;;4947978;28;20228;-39
2022/07/31 01:50:44;;;;;;;9.52;6.30;;;;;;;;;;4998416;28;20212;-39
2022/07/31 01:53:14;;;;;;;11.63;6.10;;;;;;;;;;4982150;28;20225;-39
2022/07/31 01:55:41;;;;;;;9.90;5.85;;;;;;;;;;4982053;28;20197;-39
2022/07/31 01:58:35;;;;;;;9.25;5.90;;;;;;;;;;4998183;28;20206;-39
2022/07/31 02:01:10;;;;;;;8.20;5.97;;;;;;;;;;4982360;28;20225;-40
2022/07/31 02:03:40;;;;;;;8.77;6.38;;;;;;;;;;4998395;28;20209;-39
2022/07/31 02:06:15;;;;;;;9.02;6.05;;;;;;;;;;4998909;28;20209;-40
2022/07/31 02:08:44;;;;;;;12.57;6.30;;;;;;;;;;5045233;28;20203;-39
2022/07/31 02:11:14;;;;;;;8.77;6.00;;;;;;;;;;5074794;28;20261;-39
2022/07/31 02:13:42;;;;;;;9.00;6.60;;;;;;;;;;5074342;28;20267;-39
2022/07/31 02:16:11;;;;;;;8.55;6.50;;;;;;;;;;5058160;28;20740;-40
2022/07/31 02:18:39;;;;;;;13.38;6.78;;;;;;;;;;5058110;28;20645;-40
2022/07/31 02:21:18;;;;;;;13.05;6.85;;;;;;;;;;5059938;28;20211;-40
2022/07/31 02:23:45;;;;;;;11.00;6.75;;;;;;;;;;5074094;28;20211;-39
2022/07/31 02:26:14;;;;;;;11.18;7.47;;;;;;;;;;5073726;28;20242;-39
2022/07/31 02:28:43;;;;;;;10.32;6.97;;;;;;;;;;5057309;28;20557;-39
2022/07/31 02:31:11;;;;;;;8.68;6.75;;;;;;;;;;5057339;28;20200;-39
2022/07/31 02:33:41;;;;;;;8.80;6.68;;;;;;;;;;5057710;28;20231;-39
2022/07/31 02:36:10;;;;;;;9.32;7.30;;;;;;;;;;5074156;28;20196;-39
2022/07/31 02:38:38;;;;;;;9.50;7.07;;;;;;;;;;5057340;28;20630;-39
2022/07/31 02:41:06;;;;;;;10.88;7.43;;;;;;;;;;5057275;28;20199;-40
2022/07/31 02:43:34;;;;;;;11.32;6.95;;;;;;;;;;5046823;28;20200;-40
2022/07/31 02:46:11;;;;;;;10.55;7.47;;;;;;;;;;5053685;28;20704;-39
2022/07/31 02:48:39;;;;;;;9.13;6.90;;;;;;;;;;5037453;28;20266;-39
2022/07/31 02:51:09;;;;;;;12.95;7.43;;;;;;;;;;5036384;28;20214;-40
2022/07/31 02:53:39;;;;;;;11.02;7.25;;;;;;;;;;5068490;28;20216;-40
2022/07/31 02:56:09;;;;;;;9.50;7.70;;;;;;;;;;5051676;28;20211;-39
2022/07/31 02:58:42;;;;;;;10.20;7.45;;;;;;;;;;5051579;28;20199;-39
2022/07/31 03:01:23;;;;;;;12.77;7.47;;;;;;;;;;5084878;28;20693;-39
2022/07/31 03:03:50;;;;;;;10.45;7.55;;;;;;;;;;5051547;28;20219;-39
2022/07/31 03:06:17;;;;;;;13.13;7.60;;;;;;;;;;5053516;28;20210;-40
2022/07/31 03:08:44;;;;;;;11.18;7.95;;;;;;;;;;5053393;28;20215;-40
2022/07/31 03:11:16;;;;;;;10.90;7.88;;;;;;;;;;5087335;28;20215;-40
2022/07/31 03:13:46;;;;;;;13.70;7.63;;;;;;;;;;5086957;28;20326;-39
2022/07/31 03:16:13;;;;;;;13.10;7.68;;;;;;;;;;5053384;28;20540;-39
2022/07/31 03:18:40;;;;;;;13.18;7.85;;;;;;;;;;5053444;28;20204;-39
2022/07/31 03:21:09;;;;;;;13.20;7.88;;;;;;;;;;5036925;28;20228;-40
2022/07/31 03:23:37;;;;;;;9.90;8.02;;;;;;;;;;5053372;28;20536;-39
2022/07/31 03:26:09;;;;;;;12.25;7.20;;;;;;;;;;5087106;28;20515;-39
2022/07/31 03:28:37;;;;;;;11.90;7.30;;;;;;;;;;5054553;28;20212;-40
2022/07/31 03:31:06;;;;;;;13.52;8.02;;;;;;;;;;5054847;28;20204;-40
2022/07/31 03:33:35;;;;;;;13.55;7.25;;;;;;;;;;5054351;28;20266;-40
2022/07/31 03:36:03;;;;;;;14.50;8.45;;;;;;;;;;5054240;28;20200;-39
2022/07/31 03:38:30;;;;;;;13.05;7.55;;;;;;;;;;5071370;28;20208;-39
2022/07/31 03:41:21;;;;;;;9.45;7.55;;;;;;;;;;5057979;28;20189;-39
2022/07/31 03:43:49;;;;;;;17.35;8.40;;;;;;;;;;5091021;28;20203;-39
2022/07/31 03:46:20;;;;;;;13.70;8.18;;;;;;;;;;5041403;28;20204;-40
2022/07/31 03:48:50;;;;;;;11.98;7.80;;;;;;;;;;5057549;28;20235;-39
2022/07/31 03:51:18;;;;;;;10.43;8.20;;;;;;;;;;5091264;28;20204;-39
2022/07/31 03:53:45;;;;;;;10.93;8.50;;;;;;;;;;5040911;28;20220;-39
2022/07/31 03:56:49;;;;;;;13.65;8.88;;;;;;;;;;5046098;28;20206;-39
2022/07/31 03:59:18;;;;;;;9.50;7.85;;;;;;;;;;5057841;28;20588;-39
2022/07/31 04:01:47;;;;;;;11.30;8.30;;;;;;;;;;5056946;28;20240;-39
2022/07/31 04:04:36;;;;;;;12.23;8.45;;;;;;;;;;5056952;28;20207;-39
2022/07/31 04:07:04;;;;;;;18.05;7.93;;;;;;;;;;5057089;28;20623;-39
2022/07/31 04:09:31;;;;;;;11.05;7.70;;;;;;;;;;5056809;28;20222;-39
2022/07/31 04:11:59;;;;;;;10.60;8.15;;;;;;;;;;5057473;28;20338;-39
2022/07/31 04:14:26;;;;;;;12.60;8.40;;;;;;;;;;5065267;28;20227;-39
2022/07/31 04:16:53;;;;;;;10.20;8.35;;;;;;;;;;5058213;28;20299;-39
2022/07/31 04:19:22;;;;;;;13.13;7.95;;;;;;;;;;5056904;28;20211;-40
2022/07/31 04:21:49;;;;;;;16.60;8.38;;;;;;;;;;5056817;28;20212;-39
2022/07/31 04:24:17;;;;;;;9.27;7.75;;;;;;;;;;5058081;28;20270;-39
2022/07/31 04:27:04;;;;;;;11.52;8.50;;;;;;;;;;5036450;28;20212;-40
2022/07/31 04:29:41;;;;;;;14.82;8.27;;;;;;;;;;5110576;28;20202;-39
2022/07/31 04:32:08;;;;;;;13.60;7.88;;;;;;;;;;5110394;28;20195;-39
2022/07/31 04:35:03;;;;;;;13.02;8.32;;;;;;;;;;5077102;28;20693;-39
2022/07/31 04:37:31;;;;;;;14.30;8.07;;;;;;;;;;5076253;28;20200;-40
2022/07/31 04:39:59;;;;;;;9.90;7.90;;;;;;;;;;5110349;28;20207;-40
2022/07/31 04:42:26;;;;;;;10.25;7.80;;;;;;;;;;5109981;28;20218;-39
2022/07/31 04:44:58;;;;;;;10.90;8.13;;;;;;;;;;5076743;28;20187;-39
2022/07/31 04:47:26;;;;;;;10.85;7.47;;;;;;;;;;5076126;28;20642;-39
2022/07/31 04:49:54;;;;;;;11.45;7.97;;;;;;;;;;5109054;28;20629;-39
2022/07/31 04:52:21;;;;;;;11.88;8.15;;;;;;;;;;5076228;28;20270;-39
2022/07/31 04:54:49;;;;;;;11.43;7.95;;;;;;;;;;5076163;28;20318;-40
2022/07/31 04:57:16;;;;;;;12.02;7.78;;;;;;;;;;5076760;28;20203;-40
2022/07/31 04:59:48;;;;;;;11.70;7.53;;;;;;;;;;5109860;28;20549;-39
2022/07/31 05:02:31;;;;;;;8.95;7.72;;;;;;;;;;5109847;28;20223;-39
2022/07/31 05:05:00;;;;;;;12.73;8.15;;;;;;;;;;5076062;28;20587;-39
2022/07/31 05:07:33;;;;;;;10.85;7.78;;;;;;;;;;5075893;28;20211;-39
2022/07/31 05:10:06;;;;;;;12.15;8.40;;;;;;;;;;5109903;28;20203;-39
2022/07/31 05:12:34;;;;;;;12.55;8.15;;;;;;;;;;5109669;28;20199;-39
2022/07/31 05:15:01;;;;;;;9.05;7.75;;;;;;;;;;5076963;28;20234;-39
2022/07/31 05:17:29;;;;;;;14.50;8.27;;;;;;;;;;5075726;28;20212;-39
2022/07/31 05:20:16;;;;;;;13.70;8.10;;;;;;;;;;5063438;28;20208;-39
2022/07/31 05:22:58;;;;;;;11.50;8.25;;;;;;;;;;5055580;28;20234;-39
2022/07/31 05:25:33;;;;;;;8.88;7.68;;;;;;;;;;5056035;28;20187;-39
2022/07/31 05:28:01;;;;;;;11.20;7.68;;;;;;;;;;5055624;28;20200;-39
2022/07/31 05:30:28;;;;;;;16.65;8.07;;;;;;;;;;5055270;28;20211;-39
2022/07/31 05:32:57;;;;;;;10.65;8.63;;;;;;;;;;5055453;28;20207;-39
2022/07/31 05:35:25;;;;;;;11.95;8.45;;;;;;;;;;5089119;28;20204;-39
2022/07/31 05:37:52;;;;;;;12.95;8.10;;;;;;;;;;5055240;28;20598;-39
2022/07/31 05:40:33;;;;;;;10.00;8.40;;;;;;;;;;5057976;28;20223;-39
2022/07/31 05:43:19;;;;;;;11.80;8.77;;;;;;;;;;5074772;28;20246;-39
2022/07/31 05:45:59;;;;;;;11.65;8.70;;;;;;;;;;5074035;28;20268;-40
2022/07/31 05:48:27;;;;;;;11.93;8.13;;;;;;;;;;5061593;28;20233;-39
2022/07/31 05:50:54;;;;;;;11.07;9.20;;;;;;;;;;5073772;28;20222;-39
2022/07/31 05:53:21;;;;;;;11.52;8.95;;;;;;;;;;5071395;28;20242;-46
2022/07/31 05:56:14;;;;;;;10.55;8.40;;;;;;;;;;5070206;28;20310;-40
2022/07/31 05:58:47;;;;;;;16.95;8.73;;;;;;;;;;5082169;28;20242;-43
2022/07/31 06:01:15;;;;;;;11.32;9.38;;;;;;;;;;5073321;28;20246;-41
2022/07/31 06:03:42;;;;;;;14.07;8.35;;;;;;;;;;5105810;28;20242;-42
2022/07/31 06:06:25;;;;;;;13.20;9.05;;;;;;;;;;5110054;27;20195;-40
2022/07/31 06:08:52;;;;;;;10.57;8.98;;;;;;;;;;5081333;28;20237;-41
2022/07/31 06:11:19;;;;;;;12.32;9.60;;;;;;;;;;5054047;28;20200;-41
2022/07/31 06:13:47;;;;;;;12.98;9.05;;;;;;;;;;5054474;28;20228;-40
2022/07/31 06:16:25;;;;;;;9.52;8.40;;;;;;;;;;5054327;28;20192;-41
2022/07/31 06:18:52;;;;;;;10.75;9.00;;;;;;;;;;5090464;27;20219;-41
2022/07/31 06:21:19;;;;;;;15.32;9.45;;;;;;;;;;5083926;28;20737;-41
2022/07/31 06:23:45;;;;;;;13.63;8.82;;;;;;;;;;5073840;28;20235;-42
2022/07/31 06:26:24;;;;;;;11.93;10.02;;;;;;;;;;5072063;28;20222;-41
2022/07/31 06:28:53;;;;;;;12.00;9.60;;;;;;;;;;5072846;28;20231;-45
2022/07/31 06:31:21;;;;;;;14.18;9.73;;;;;;;;;;5073269;28;20233;-41
2022/07/31 06:33:54;;;;;;;12.68;9.63;;;;;;;;;;5072192;28;20238;-41
2022/07/31 06:36:25;;;;;;;12.45;10.10;;;;;;;;;;5073514;28;20238;-41
2022/07/31 06:38:56;;;;;;;18.38;9.93;;;;;;;;;;5074391;28;20551;-40
2022/07/31 06:41:43;;;;;;;11.00;9.32;;;;;;;;;;5072978;28;20242;-43
2022/07/31 06:44:31;;;;;;;13.38;9.75;;;;;;;;;;5071661;28;20231;-43
2022/07/31 06:47:18;;;;;;;11.95;9.70;;;;;;;;;;5072255;28;20320;-43
2022/07/31 06:50:00;;;;;;;10.73;9.45;;;;;;;;;;5076364;28;20231;-43
2022/07/31 06:52:33;;;;;;;14.48;10.02;;;;;;;;;;5072704;28;20218;-43
2022/07/31 06:55:00;;;;;;;11.45;9.23;;;;;;;;;;5106358;28;20274;-43
2022/07/31 06:57:28;;;;;;;11.68;10.27;;;;;;;;;;5105936;28;20230;-44
2022/07/31 06:59:55;;;;;;;16.83;10.20;;;;;;;;;;5073487;28;20310;-44
2022/07/31 07:02:22;;;;;;;14.88;10.57;;;;;;;;;;5073253;28;20223;-45
2022/07/31 07:04:50;;;;;;;12.50;10.07;;;;;;;;;;5071258;28;20292;-43
2022/07/31 07:07:34;;;;;;;16.42;10.38;;;;;;;;;;5072635;28;20223;-44
2022/07/31 07:10:04;;;;;;;11.95;9.88;;;;;;;;;;5072763;28;20230;-44
2022/07/31 07:12:50;;;;;;;16.65;11.02;;;;;;;;;;5071871;28;20313;-45
2022/07/31 07:15:20;;;;;;;13.07;10.25;;;;;;;;;;5073480;28;20235;-40
2022/07/31 07:17:47;;;;;;;15.93;11.02;;;;;;;;;;5105962;28;20709;-40
2022/07/31 07:20:19;;;;;;;13.65;10.73;;;;;;;;;;5106433;28;20661;-43
2022/07/31 07:22:46;;;;;;;13.18;10.70;;;;;;;;;;5072768;28;20231;-40
2022/07/31 07:25:25;;;;;;;14.05;11.15;;;;;;;;;;5106264;28;20238;-42
2022/07/31 07:27:56;;;;;;;16.60;11.70;;;;;;;;;;5106601;28;20227;-41
2022/07/31 07:30:27;;;;;;;14.38;11.02;;;;;;;;;;5089660;28;20223;-41
2022/07/31 07:32:58;;;;;;;15.27;11.20;;;;;;;;;;5105827;28;20222;-41
2022/07/31 07:35:27;;;;;;;13.55;11.10;;;;;;;;;;5106180;28;20305;-41
2022/07/31 07:38:02;;;;;;;14.30;11.57;;;;;;;;;;5109247;28;20211;-41
2022/07/31 07:40:30;;;;;;;13.55;11.10;;;;;;;;;;5082433;28;20562;-44
2022/07/31 07:42:56;;;;;;;17.17;12.63;;;;;;;;;;5076653;28;20210;-42
2022/07/31 07:45:29;;;;;;;15.73;11.93;;;;;;;;;;5112602;28;20226;-41
2022/07/31 07:47:57;;;;;;;16.63;12.50;;;;;;;;;;5079546;28;20296;-41
2022/07/31 07:50:46;;;;;;;15.85;12.15;;;;;;;;;;5081826;28;20271;-42
2022/07/31 07:53:45;;;;;;;19.17;12.45;;;;;;;;;;5076707;28;20306;-40
2022/07/31 07:56:32;;;;;;;16.02;12.30;;;;;;;;;;5086018;28;20561;-42
2022/07/31 07:59:08;;;;;;;17.92;12.63;;;;;;;;;;5080742;28;20662;-42
2022/07/31 08:01:59;;;;;;;17.60;13.25;;;;;;;;;;5079093;28;20239;-42
2022/07/31 08:04:29;;;;;;;17.73;13.70;;;;;;;;;;5080133;28;20222;-43
2022/07/31 08:06:56;;;;;;;19.67;13.68;;;;;;;;;;5081106;28;20291;-41
2022/07/31 08:09:29;;;;;;;19.77;13.77;;;;;;;;;;5081699;28;20222;-41
2022/07/31 08:12:25;;;;;;;21.73;13.10;;;;;;;;;;5038116;28;20723;-41
2022/07/31 08:15:22;;;;;;;14.52;12.30;;;;;;;;;;4973235;28;20230;-42
2022/07/31 08:17:49;;;;;;;14.88;12.50;;;;;;;;;;5041174;28;20208;-43
2022/07/31 08:20:16;;;;;;;13.38;11.18;;;;;;;;;;5032107;28;20730;-43
2022/07/31 08:22:43;;;;;;;14.95;11.45;;;;;;;;;;5024674;28;20235;-43
2022/07/31 08:25:11;;;;;;;17.38;11.00;;;;;;;;;;5031914;28;20255;-46
2022/07/31 08:27:43;;;;;;;10.25;8.85;;;;;;;;;;5036406;28;20216;-45
2022/07/31 08:30:14;;;;;;;12.18;9.65;;;;;;;;;;5026544;28;20196;-44
2022/07/31 08:32:42;;;;;;;11.13;8.57;;;;;;;;;;5028327;28;20215;-44
2022/07/31 08:35:19;;;;;;;15.40;8.82;;;;;;;;;;5026137;28;20235;-42
2022/07/31 08:37:48;;;;;;;9.85;8.00;;;;;;;;;;5031409;28;20196;-43
2022/07/31 08:40:29;;;;;;;11.80;9.18;;;;;;;;;;5042225;28;20197;-44
2022/07/31 08:42:58;;;;;;;11.85;8.52;;;;;;;;;;5026682;28;20213;-47
2022/07/31 08:45:27;;;;;;;10.30;7.82;;;;;;;;;;5051795;28;20224;-45
2022/07/31 08:48:31;;;;;;;13.20;7.95;;;;;;;;;;4994722;28;20226;-45
2022/07/31 08:51:02;;;;;;;8.60;7.32;;;;;;;;;;4991598;28;20237;-41
2022/07/31 08:53:49;;;;;;;9.50;7.28;;;;;;;;;;5014597;28;20311;-41
2022/07/31 08:56:19;;;;;;;14.57;7.60;;;;;;;;;;4997782;28;20225;-42
2022/07/31 08:58:46;;;;;;;10.63;7.32;;;;;;;;;;4998181;28;20232;-42
2022/07/31 09:01:13;;;;;;;7.88;7.05;;;;;;;;;;4997916;28;20237;-42
2022/07/31 09:03:41;;;;;;;9.63;7.13;;;;;;;;;;4998112;28;20236;-44
2022/07/31 09:06:14;;;;;;;8.52;7.63;;;;;;;;;;4998116;28;20233;-42
2022/07/31 09:08:41;;;;;;;9.68;7.65;;;;;;;;;;5014324;28;20252;-42
2022/07/31 09:11:10;;;;;;;8.20;7.18;;;;;;;;;;5013967;28;20738;-42
2022/07/31 09:13:53;;;;;;;9.43;7.40;;;;;;;;;;4998135;28;20711;-43
2022/07/31 09:16:49;;;;;;;10.98;7.65;;;;;;;;;;4997735;28;20229;-42
2022/07/31 09:19:24;;;;;;;12.48;7.70;;;;;;;;;;4998254;28;20697;-43
2022/07/31 09:22:32;;;;;;;10.90;7.75;;;;;;;;;;5002653;28;20225;-42
2022/07/31 09:25:11;;;;;;;11.30;7.32;;;;;;;;;;5066422;28;20288;-43
2022/07/31 09:27:38;;;;;;;7.75;6.63;;;;;;;;;;5074240;28;20226;-42
2022/07/31 09:30:07;;;;;;;9.98;6.57;;;;;;;;;;5074940;28;20227;-43
2022/07/31 09:33:17;;;;;;;7.47;5.60;;;;;;;;;;5053532;28;20759;-42
2022/07/31 09:36:21;;;;;;;10.50;5.72;;;;;;;;;;5051856;28;20235;-42
2022/07/31 09:38:52;;;;;;;6.35;5.07;;;;;;;;;;5075232;28;20691;-42
2022/07/31 09:41:31;;;;;;;7.53;5.60;;;;;;;;;;5076002;28;20207;-42
2022/07/31 09:44:43;;;;;;;6.13;4.90;;;;;;;;;;5074420;28;20204;-42
2022/07/31 09:47:31;;;;;;;7.13;5.40;;;;;;;;;;5075239;28;20509;-43
2022/07/31 09:50:03;;;;;;;7.25;5.53;;;;;;;;;;5075303;28;20279;-42
2022/07/31 09:52:32;;;;;;;6.45;5.68;;;;;;;;;;5074844;28;20544;-42
2022/07/31 09:55:14;;;;;;;8.95;5.18;;;;;;;;;;5074961;28;20300;-42
2022/07/31 09:57:56;;;;;;;8.45;5.55;;;;;;;;;;5075428;28;20192;-42
2022/07/31 10:00:27;;;;;;;6.68;5.00;;;;;;;;;;5075105;28;20230;-42
2022/07/31 10:02:56;;;;;;;5.15;4.65;;;;;;;;;;5074975;28;20204;-42
2022/07/31 10:05:26;;;;;;;6.88;4.80;;;;;;;;;;5074738;28;20269;-42
2022/07/31 10:07:58;;;;;;;4.32;3.92;;;;;;;;;;5058906;28;20253;-42
2022/07/31 10:10:46;;;;;;;5.30;4.13;;;;;;;;;;5075649;28;20199;-43
2022/07/31 10:13:26;;;;;;;6.70;3.95;;;;;;;;;;5074590;28;20199;-42
2022/07/31 10:15:55;;;;;;;5.70;4.38;;;;;;;;;;5074590;28;20223;-43
2022/07/31 10:18:37;;;;;;;6.90;4.75;;;;;;;;;;5074800;28;20568;-41
2022/07/31 10:21:35;;;;;;;4.72;4.03;;;;;;;;;;5075153;28;20709;-42
2022/07/31 10:24:22;;;;;;;4.57;4.18;;;;;;;;;;5060646;28;20210;-41
2022/07/31 10:26:57;;;;;;;4.53;4.13;;;;;;;;;;5059168;28;20552;-42
2022/07/31 10:29:29;;;;;;;5.55;4.70;;;;;;;;;;5074700;28;20210;-42
2022/07/31 10:32:00;;;;;;;4.97;4.47;;;;;;;;;;5074589;28;20568;-42
2022/07/31 10:34:28;;;;;;;6.25;4.53;;;;;;;;;;5074412;28;20209;-42
2022/07/31 10:37:21;;;;;;;5.30;4.80;;;;;;;;;;5075871;28;20206;-43
2022/07/31 10:40:55;;;;;;;4.32;3.92;;;;;;;;;;5074632;28;20199;-42
2022/07/31 10:43:44;;;;;;;5.22;4.35;;;;;;;;;;5056039;28;20211;-42
2022/07/31 10:46:31;;;;;;;6.05;4.80;;;;;;;;;;5074245;28;20280;-42
2022/07/31 10:49:14;;;;;;;4.88;4.28;;;;;;;;;;5074288;28;20226;-42
2022/07/31 10:52:30;;;;;;;5.10;4.60;;;;;;;;;;5074764;28;20199;-43
2022/07/31 10:55:24;;;;;;;5.53;4.90;;;;;;;;;;5074512;28;20253;-42
2022/07/31 10:58:20;;;;;;;5.28;4.88;;;;;;;;;;5069758;28;20540;-48
2022/07/31 11:01:17;;;;;;;5.68;4.70;;;;;;;;;;5073937;28;20234;-42
2022/07/31 11:04:10;;;;;;;7.28;5.80;;;;;;;;;;5075283;28;20227;-43
2022/07/31 11:07:18;;;;;;;6.40;5.80;;;;;;;;;;5072450;28;20215;-42
2022/07/31 11:10:20;;;;;;;6.07;5.47;;;;;;;;;;5072187;28;20291;-44
2022/07/31 11:13:04;;;;;;;5.90;5.30;;;;;;;;;;5073174;28;20235;-42
2022/07/31 11:16:03;;;;;;;5.10;4.65;;;;;;;;;;5073436;28;20249;-42
2022/07/31 11:19:03;;;;;;;5.05;4.65;;;;;;;;;;5073893;28;20230;-42
2022/07/31 11:21:34;;;;;;;8.80;5.00;;;;;;;;;;5073870;28;20274;-44
2022/07/31 11:24:19;;;;;;;5.55;4.95;;;;;;;;;;5073895;28;20242;-42
2022/07/31 11:26:57;;;;;;;7.00;4.95;;;;;;;;;;5072502;28;20219;-43
2022/07/31 11:29:43;;;;;;;9.48;4.80;;;;;;;;;;5073396;28;20223;-44
2022/07/31 11:32:29;;;;;;;5.30;4.80;;;;;;;;;;5071327;28;20227;-44
2022/07/31 11:34:56;;;;;;;5.55;5.05;;;;;;;;;;5072883;28;20727;-46
2022/07/31 11:37:27;;;;;;;6.15;5.47;;;;;;;;;;5072601;28;20716;-45
2022/07/31 11:40:12;;;;;;;5.80;5.20;;;;;;;;;;5073020;28;20577;-49
2022/07/31 11:42:44;;;;;;;6.03;4.78;;;;;;;;;;5072846;28;20214;-45
2022/07/31 11:45:14;;;;;;;4.95;4.45;;;;;;;;;;5073443;28;20223;-47
2022/07/31 11:47:47;;;;;;;5.72;5.13;;;;;;;;;;5072828;28;20231;-47
2022/07/31 11:50:41;;;;;;;6.25;5.65;;;;;;;;;;5051752;28;20234;-45
2022/07/31 11:53:08;;;;;;;6.25;5.25;;;;;;;;;;5057902;28;20219;-45
2022/07/31 11:55:52;;;;;;;6.07;4.85;;;;;;;;;;5072065;28;20239;-45
2022/07/31 11:58:21;;;;;;;5.32;4.82;;;;;;;;;;5073039;28;20310;-45
2022/07/31 12:00:54;;;;;;;5.10;4.55;;;;;;;;;;5076487;28;20296;-45
2022/07/31 12:03:31;;;;;;;6.00;5.07;;;;;;;;;;5075728;28;20224;-45
2022/07/31 12:05:59;;;;;;;6.75;4.80;;;;;;;;;;5076952;28;20654;-45
2022/07/31 12:08:27;;;;;;;6.13;5.28;;;;;;;;;;5076816;28;20219;-44
2022/07/31 12:10:56;;;;;;;5.07;4.63;;;;;;;;;;5075955;28;20223;-45
2022/07/31 12:13:24;;;;;;;6.95;5.20;;;;;;;;;;5075697;28;20215;-45
2022/07/31 12:15:54;;;;;;;6.43;4.57;;;;;;;;;;5076882;28;20235;-44
2022/07/31 12:18:21;;;;;;;8.02;5.95;;;;;;;;;;5076460;28;20665;-44
2022/07/31 12:20:53;;;;;;;14.43;6.28;;;;;;;;;;5076698;28;20606;-47
2022/07/31 12:23:21;;;;;;;10.80;6.20;;;;;;;;;;5075606;28;20684;-45
2022/07/31 12:26:10;;;;;;;9.93;5.53;;;;;;;;;;5076109;28;20227;-45
2022/07/31 12:28:37;;;;;;;11.20;6.63;;;;;;;;;;5077334;28;20314;-45
2022/07/31 12:31:04;;;;;;;7.45;5.95;;;;;;;;;;5076372;28;20223;-44
2022/07/31 12:33:41;;;;;;;8.90;6.18;;;;;;;;;;5076327;28;20243;-44
2022/07/31 12:36:16;;;;;;;8.07;5.78;;;;;;;;;;5076375;28;20269;-47
2022/07/31 12:38:44;;;;;;;9.00;5.63;;;;;;;;;;5076641;28;20234;-44
2022/07/31 12:41:15;;;;;;;9.65;6.05;;;;;;;;;;5075780;28;20276;-45
2022/07/31 12:43:42;;;;;;;9.38;6.32;;;;;;;;;;5075168;28;20223;-45
2022/07/31 12:46:34;;;;;;;8.32;6.55;;;;;;;;;;5075806;28;20223;-45
2022/07/31 12:49:03;;;;;;;8.32;6.40;;;;;;;;;;5076001;28;20227;-45
2022/07/31 12:51:32;;;;;;;10.32;6.28;;;;;;;;;;5075478;28;20790;-44
2022/07/31 12:54:16;;;;;;;7.38;6.10;;;;;;;;;;5076282;28;20238;-44
2022/07/31 12:56:45;;;;;;;8.30;6.53;;;;;;;;;;5075741;28;20243;-43
2022/07/31 12:59:12;;;;;;;7.28;6.47;;;;;;;;;;5076244;28;20220;-44
2022/07/31 13:01:39;;;;;;;7.70;6.28;;;;;;;;;;5076312;28;20312;-42
2022/07/31 13:04:08;;;;;;;7.85;5.30;;;;;;;;;;5075915;28;20276;-45
2022/07/31 13:06:47;;;;;;;7.85;5.07;;;;;;;;;;5074821;28;20215;-43
2022/07/31 13:09:14;;;;;;;9.77;5.80;;;;;;;;;;5055917;28;20224;-46
2022/07/31 13:11:42;;;;;;;6.22;5.63;;;;;;;;;;5059419;28;20220;-42
2022/07/31 13:14:15;;;;;;;5.93;4.78;;;;;;;;;;5075785;28;20238;-43
2022/07/31 13:16:46;;;;;;;6.85;5.65;;;;;;;;;;5075610;28;20250;-42
2022/07/31 13:19:14;;;;;;;9.25;6.00;;;;;;;;;;5075548;28;20250;-43
2022/07/31 13:21:42;;;;;;;6.15;5.45;;;;;;;;;;5075675;28;20238;-44
2022/07/31 13:24:17;;;;;;;6.28;4.95;;;;;;;;;;5075618;28;20241;-43
2022/07/31 13:26:45;;;;;;;5.07;4.57;;;;;;;;;;5075108;28;20223;-42
2022/07/31 13:29:12;;;;;;;5.82;4.68;;;;;;;;;;5075367;28;20219;-44
2022/07/31 13:31:39;;;;;;;5.10;4.57;;;;;;;;;;5075272;28;20219;-42
2022/07/31 13:34:06;;;;;;;6.10;4.38;;;;;;;;;;5075433;28;20234;-43
2022/07/31 13:36:33;;;;;;;6.45;4.60;;;;;;;;;;5075297;28;20227;-44
2022/07/31 13:39:09;;;;;;;7.93;5.28;;;;;;;;;;5075671;28;20625;-45
2022/07/31 13:41:37;;;;;;;6.47;4.75;;;;;;;;;;5075183;28;20326;-45
2022/07/31 13:44:05;;;;;;;5.30;4.80;;;;;;;;;;5075302;28;20223;-45
2022/07/31 13:46:33;;;;;;;5.38;4.88;;;;;;;;;;5074819;28;20231;-44
2022/07/31 13:49:00;;;;;;;6.55;4.65;;;;;;;;;;5095380;28;20214;-43
2022/07/31 13:51:28;;;;;;;5.80;5.20;;;;;;;;;;5094521;27;20246;-43
2022/07/31 13:53:55;;;;;;;7.35;5.97;;;;;;;;;;5094892;28;20746;-43
2022/07/31 13:56:23;;;;;;;8.65;5.15;;;;;;;;;;5095898;28;20243;-43
2022/07/31 13:59:12;;;;;;;7.20;5.30;;;;;;;;;;5096317;28;20186;-42
2022/07/31 14:01:40;;;;;;;6.47;5.80;;;;;;;;;;5095998;28;20226;-43
2022/07/31 14:04:28;;;;;;;6.68;5.53;;;;;;;;;;5096496;28;20211;-43
2022/07/31 14:06:59;;;;;;;6.53;5.93;;;;;;;;;;5095995;28;20202;-45
2022/07/31 14:09:27;;;;;;;8.80;6.57;;;;;;;;;;5095927;28;20633;-44
2022/07/31 14:11:54;;;;;;;8.77;7.50;;;;;;;;;;5094983;28;20267;-43
2022/07/31 14:14:30;;;;;;;11.90;7.55;;;;;;;;;;5095970;28;20190;-42
2022/07/31 14:16:57;;;;;;;8.95;7.72;;;;;;;;;;5095892;28;20226;-43
2022/07/31 14:19:24;;;;;;;7.95;7.25;;;;;;;;;;5095799;28;20549;-43
2022/07/31 14:21:51;;;;;;;9.07;7.82;;;;;;;;;;5095718;28;20211;-43
2022/07/31 14:24:24;;;;;;;11.15;7.40;;;;;;;;;;5095588;28;20206;-43
2022/07/31 14:26:51;;;;;;;8.25;7.45;;;;;;;;;;5095957;28;20206;-43
2022/07/31 14:29:18;;;;;;;9.18;7.90;;;;;;;;;;5095554;28;20206;-42
2022/07/31 14:31:45;;;;;;;9.88;8.20;;;;;;;;;;5095540;28;20268;-43
2022/07/31 14:34:12;;;;;;;9.10;8.20;;;;;;;;;;5095289;28;20206;-43
2022/07/31 14:36:39;;;;;;;9.10;8.20;;;;;;;;;;5095447;28;20230;-43
2022/07/31 14:39:06;;;;;;;9.02;8.00;;;;;;;;;;5095594;28;20217;-43
2022/07/31 14:41:33;;;;;;;7.63;6.82;;;;;;;;;;5095166;28;20668;-42
2022/07/31 14:44:00;;;;;;;8.50;7.13;;;;;;;;;;5095050;28;20682;-43
2022/07/31 14:46:27;;;;;;;8.25;6.85;;;;;;;;;;5095090;28;20206;-43
2022/07/31 14:48:54;;;;;;;9.63;7.47;;;;;;;;;;5095088;28;20245;-43
2022/07/31 14:51:21;;;;;;;10.07;7.47;;;;;;;;;;5095334;28;20202;-42
2022/07/31 14:53:51;;;;;;;8.55;7.75;;;;;;;;;;5095320;28;20260;-43
2022/07/31 14:56:18;;;;;;;9.80;8.55;;;;;;;;;;5095538;28;20222;-43
2022/07/31 14:59:05;;;;;;;9.40;8.40;;;;;;;;;;5094968;28;20207;-43
2022/07/31 15:01:32;;;;;;;10.15;9.07;;;;;;;;;;5095044;28;20235;-42
2022/07/31 15:03:59;;;;;;;10.38;9.25;;;;;;;;;;5095183;28;20199;-42
2022/07/31 15:06:26;;;;;;;12.25;10.57;;;;;;;;;;5082755;28;20211;-43
2022/07/31 15:09:13;;;;;;;11.60;10.40;;;;;;;;;;5074506;28;20195;-42
2022/07/31 15:11:49;;;;;;;11.48;10.18;;;;;;;;;;5074928;28;20195;-43
2022/07/31 15:14:28;;;;;;;14.18;10.57;;;;;;;;;;5074853;28;20211;-44
2022/07/31 15:16:56;;;;;;;12.23;9.82;;;;;;;;;;5075101;28;20219;-43